Ada, South Dakota
Current Conditions -  °F | °C
As of 4:53 PM on Friday 31 Oct 2014 (Local Time) from KHEI Reporting Station
Clear Clear  
Wind Chill: 31°   Ceiling: Unl
Heat Index: 41°   Visibility: 10mi
Dew Point: 16°   Wind: 22mph
Humidity: 36%   Direction: 140°SE
Pressure: 30.06"   Gusts: 35mph
Location:  45.5161°N, 102.519°W
Report Text: KHEI 312253Z AUTO 14019G30KT 10SM CLR 05/M09 A3006 RMK AO2 PK WND 14036/2158 SLP204 T00501089
Loading
Personal Weather Stations






























Interactive Weather Map
Tropical Storm Tracking
New forecast layout! Learn more

10-Day Weather Forecast

Advertisements
Track Severe Weather on mobile